This is the latest recevied weather packets stored in our database for station/object SAVIL. If no packets are shown the sender has not sent any weather packets the latest 10 day(s).
| Time | Temp. | Humidity | Pressure | Rain* | Wind** | Luminosity | Snow |
|---|---|---|---|---|---|---|---|
| 1777366000 | 3.33° C | 62% | 1015.7 hPa | 0 mm | - | - | - |
| 1777364799 | 2.22° C | 63% | 1015.7 hPa | 0 mm | - | - | - |
| 1777362399 | 1.11° C | 70% | 1015.5 hPa | 0 mm | - | - | - |
| 1777361199 | 0.56° C | 73% | 1015.3 hPa | 0 mm | - | - | - |
| 1777359999 | 1.11° C | 69% | 1015.2 hPa | 0 mm | - | - | - |
| 1777358799 | 1.11° C | 68% | 1015.2 hPa | 0 mm | - | - | - |
| 1777357599 | 0.56° C | 70% | 1015.2 hPa | 0 mm | - | - | - |
| 1777356399 | 0.56° C | 66% | 1015.1 hPa | 0 mm | - | - | - |
| 1777353999 | 0.56° C | 67% | 1014.9 hPa | 0 mm | - | - | - |
| 1777352799 | 0.56° C | 69% | 1014.9 hPa | 0 mm | - | - | - |
| 1777351599 | 0.56° C | 69% | 1014.7 hPa | 0 mm | - | - | - |
| 1777349198 | 0.56° C | 69% | 1014.6 hPa | 0 mm | - | - | - |
| 1777347998 | 0.56° C | 68% | 1014.5 hPa | 0 mm | - | - | - |
| 1777346798 | 0° C | 67% | 1014.5 hPa | 0 mm | - | - | - |
| 1777345598 | 0° C | 68% | 1014.4 hPa | 0 mm | - | - | - |
| 1777344398 | 0° C | 67% | 1014.4 hPa | 0 mm | - | - | - |
| 1777343198 | 0° C | 67% | 1014.4 hPa | 0 mm | - | - | - |
| 1777341998 | 0.56° C | 67% | 1014.3 hPa | 0 mm | - | - | - |
| 1777340798 | 0.56° C | 69% | 1014.3 hPa | 0 mm | - | - | - |
| 1777339598 | 0.56° C | 70% | 1014.2 hPa | 0 mm | - | - | - |
| 1777338398 | 0.56° C | 69% | 1014.2 hPa | 0 mm | - | - | - |
| 1777337198 | 0.56° C | 68% | 1014.2 hPa | 0 mm | - | - | - |
| 1777335998 | 1.11° C | 66% | 1014.1 hPa | 0 mm | - | - | - |
| 1777334798 | 1.11° C | 66% | 1014 hPa | 0 mm | - | - | - |
| 1777333598 | 1.11° C | 69% | 1013.9 hPa | 0 mm | - | - | - |
* Rain latest hour (hover to see other rain measurements)
** Current wind speed in m/s (hover to see current wind gust speed)